Krasnoural'sk, Russia
Current Conditions -  °F | °C
As of 4:00 PM on Thursday 18 Dec 2014 (Local Time) from USSS Reporting Station
Overcast Overcast  
Wind Chill: 15°   Ceiling: 6700
Heat Index: 25°   Visibility: 6mi
Dew Point: 21°   Wind: 9mph
Humidity: 86%   Direction: 180°S
Pressure: 30.15"   Gusts: NA
Location:  58.22°N, 60.06°E
Report Text: USSS 181100Z 18004MPS 9999 FEW020 OVC067 M04/M06 Q1021 7629//4226820342 NOSIG RMK QFE745
Loading
Personal Weather Stations






























Interactive Weather Map New forecast layout! Learn more

10-Day Weather Forecast

Advertisements
Track Severe Weather on mobile